sensor_id;sensor_type;location;lat;lon;timestamp;P1;durP1;ratioP1;P2;durP2;ratioP2
83199;SDS011;73092;49.132;8.920;2024-03-22T00:01:44;15.32;;;8.13;;
83199;SDS011;73092;49.132;8.920;2024-03-22T00:04:10;18.58;;;8.52;;
83199;SDS011;73092;49.132;8.920;2024-03-22T00:06:35;14.70;;;7.15;;
83199;SDS011;73092;49.132;8.920;2024-03-22T00:09:01;16.53;;;7.10;;
83199;SDS011;73092;49.132;8.920;2024-03-22T00:11:26;18.20;;;8.10;;
83199;SDS011;73092;49.132;8.920;2024-03-22T00:13:51;16.67;;;8.48;;
83199;SDS011;73092;49.132;8.920;2024-03-22T00:16:17;22.70;;;8.73;;
83199;SDS011;73092;49.132;8.920;2024-03-22T00:18:43;18.63;;;7.72;;
83199;SDS011;73092;49.132;8.920;2024-03-22T00:21:09;18.47;;;8.80;;
83199;SDS011;73092;49.132;8.920;2024-03-22T00:23:34;15.13;;;6.80;;
83199;SDS011;73092;49.132;8.920;2024-03-22T00:25:59;18.37;;;7.50;;
83199;SDS011;73092;49.132;8.920;2024-03-22T00:28:25;17.93;;;8.00;;
83199;SDS011;73092;49.132;8.920;2024-03-22T00:30:50;15.93;;;8.23;;
83199;SDS011;73092;49.132;8.920;2024-03-22T00:33:15;16.40;;;7.70;;
83199;SDS011;73092;49.132;8.920;2024-03-22T00:35:41;18.17;;;7.37;;
83199;SDS011;73092;49.132;8.920;2024-03-22T00:38:06;15.37;;;7.23;;
83199;SDS011;73092;49.132;8.920;2024-03-22T00:40:31;14.80;;;6.57;;
83199;SDS011;73092;49.132;8.920;2024-03-22T00:42:57;16.57;;;7.70;;
83199;SDS011;73092;49.132;8.920;2024-03-22T00:45:22;15.18;;;7.18;;
83199;SDS011;73092;49.132;8.920;2024-03-22T00:47:48;16.07;;;8.10;;
83199;SDS011;73092;49.132;8.920;2024-03-22T00:50:14;22.35;;;7.85;;
83199;SDS011;73092;49.132;8.920;2024-03-22T00:52:39;20.77;;;9.02;;
83199;SDS011;73092;49.132;8.920;2024-03-22T00:55:04;15.85;;;7.38;;
83199;SDS011;73092;49.132;8.920;2024-03-22T00:57:30;18.88;;;7.70;;
83199;SDS011;73092;49.132;8.920;2024-03-22T00:59:56;15.15;;;6.78;;
83199;SDS011;73092;49.132;8.920;2024-03-22T01:02:21;14.23;;;7.00;;
83199;SDS011;73092;49.132;8.920;2024-03-22T01:04:47;20.60;;;7.95;;
83199;SDS011;73092;49.132;8.920;2024-03-22T01:07:13;16.75;;;6.82;;
83199;SDS011;73092;49.132;8.920;2024-03-22T01:09:38;19.43;;;8.13;;
83199;SDS011;73092;49.132;8.920;2024-03-22T01:12:04;23.33;;;9.47;;
83199;SDS011;73092;49.132;8.920;2024-03-22T01:14:30;22.67;;;9.63;;
83199;SDS011;73092;49.132;8.920;2024-03-22T01:16:55;19.25;;;8.95;;
83199;SDS011;73092;49.132;8.920;2024-03-22T01:19:20;19.97;;;9.23;;
83199;SDS011;73092;49.132;8.920;2024-03-22T01:21:47;21.83;;;8.48;;
83199;SDS011;73092;49.132;8.920;2024-03-22T01:24:13;18.65;;;8.32;;
83199;SDS011;73092;49.132;8.920;2024-03-22T01:26:38;22.77;;;8.20;;
83199;SDS011;73092;49.132;8.920;2024-03-22T01:29:04;27.47;;;9.60;;
83199;SDS011;73092;49.132;8.920;2024-03-22T01:31:29;24.50;;;9.57;;
83199;SDS011;73092;49.132;8.920;2024-03-22T01:33:54;24.07;;;9.93;;
83199;SDS011;73092;49.132;8.920;2024-03-22T01:36:20;19.43;;;8.37;;
83199;SDS011;73092;49.132;8.920;2024-03-22T01:38:45;22.08;;;9.05;;
83199;SDS011;73092;49.132;8.920;2024-03-22T01:41:10;24.65;;;10.35;;
83199;SDS011;73092;49.132;8.920;2024-03-22T01:43:36;26.77;;;9.27;;
83199;SDS011;73092;49.132;8.920;2024-03-22T01:46:01;22.40;;;11.13;;
83199;SDS011;73092;49.132;8.920;2024-03-22T01:48:27;27.48;;;9.65;;
83199;SDS011;73092;49.132;8.920;2024-03-22T01:50:52;18.92;;;8.70;;
83199;SDS011;73092;49.132;8.920;2024-03-22T01:53:18;22.30;;;8.30;;
83199;SDS011;73092;49.132;8.920;2024-03-22T01:55:43;17.30;;;8.50;;
83199;SDS011;73092;49.132;8.920;2024-03-22T01:58:09;18.60;;;9.23;;
83199;SDS011;73092;49.132;8.920;2024-03-22T02:00:34;28.60;;;9.25;;
83199;SDS011;73092;49.132;8.920;2024-03-22T02:03:00;19.23;;;8.63;;
83199;SDS011;73092;49.132;8.920;2024-03-22T02:05:25;18.47;;;9.07;;
83199;SDS011;73092;49.132;8.920;2024-03-22T02:07:51;20.08;;;9.05;;
83199;SDS011;73092;49.132;8.920;2024-03-22T02:10:17;21.60;;;9.83;;
83199;SDS011;73092;49.132;8.920;2024-03-22T02:12:42;17.40;;;8.80;;
83199;SDS011;73092;49.132;8.920;2024-03-22T02:15:08;17.67;;;9.17;;
83199;SDS011;73092;49.132;8.920;2024-03-22T02:17:34;21.70;;;9.50;;
83199;SDS011;73092;49.132;8.920;2024-03-22T02:20:00;22.63;;;9.27;;
83199;SDS011;73092;49.132;8.920;2024-03-22T02:22:27;24.65;;;10.10;;
83199;SDS011;73092;49.132;8.920;2024-03-22T02:24:52;21.20;;;9.48;;
83199;SDS011;73092;49.132;8.920;2024-03-22T02:27:18;20.95;;;9.05;;
83199;SDS011;73092;49.132;8.920;2024-03-22T02:29:43;21.13;;;9.30;;
83199;SDS011;73092;49.132;8.920;2024-03-22T02:32:09;20.83;;;10.10;;
83199;SDS011;73092;49.132;8.920;2024-03-22T02:34:34;24.83;;;9.73;;
83199;SDS011;73092;49.132;8.920;2024-03-22T02:36:59;21.80;;;9.50;;
83199;SDS011;73092;49.132;8.920;2024-03-22T02:39:25;25.73;;;10.83;;
83199;SDS011;73092;49.132;8.920;2024-03-22T02:41:50;23.47;;;9.93;;
83199;SDS011;73092;49.132;8.920;2024-03-22T02:44:16;21.67;;;8.77;;
83199;SDS011;73092;49.132;8.920;2024-03-22T02:46:41;20.42;;;9.00;;
83199;SDS011;73092;49.132;8.920;2024-03-22T02:49:06;22.67;;;9.87;;
83199;SDS011;73092;49.132;8.920;2024-03-22T02:51:32;25.77;;;9.60;;
83199;SDS011;73092;49.132;8.920;2024-03-22T02:53:57;24.53;;;10.07;;
83199;SDS011;73092;49.132;8.920;2024-03-22T02:56:23;19.90;;;9.40;;
83199;SDS011;73092;49.132;8.920;2024-03-22T02:58:51;24.97;;;10.53;;
83199;SDS011;73092;49.132;8.920;2024-03-22T03:01:16;20.40;;;9.07;;
83199;SDS011;73092;49.132;8.920;2024-03-22T03:03:43;20.97;;;9.17;;
83199;SDS011;73092;49.132;8.920;2024-03-22T03:06:08;25.13;;;10.63;;
83199;SDS011;73092;49.132;8.920;2024-03-22T03:08:34;24.05;;;10.07;;
83199;SDS011;73092;49.132;8.920;2024-03-22T03:11:00;23.33;;;10.07;;
83199;SDS011;73092;49.132;8.920;2024-03-22T03:13:25;21.92;;;9.25;;
83199;SDS011;73092;49.132;8.920;2024-03-22T03:15:51;23.30;;;9.52;;
83199;SDS011;73092;49.132;8.920;2024-03-22T03:18:16;24.75;;;11.00;;
83199;SDS011;73092;49.132;8.920;2024-03-22T03:20:42;24.38;;;9.82;;
83199;SDS011;73092;49.132;8.920;2024-03-22T03:23:07;22.92;;;9.45;;
83199;SDS011;73092;49.132;8.920;2024-03-22T03:25:33;28.23;;;10.80;;
83199;SDS011;73092;49.132;8.920;2024-03-22T03:27:58;25.40;;;9.37;;
83199;SDS011;73092;49.132;8.920;2024-03-22T03:30:23;21.77;;;10.27;;
83199;SDS011;73092;49.132;8.920;2024-03-22T03:32:49;22.70;;;9.30;;
83199;SDS011;73092;49.132;8.920;2024-03-22T03:35:14;25.83;;;10.07;;
83199;SDS011;73092;49.132;8.920;2024-03-22T03:37:39;21.97;;;9.03;;
83199;SDS011;73092;49.132;8.920;2024-03-22T03:40:06;21.83;;;11.43;;
83199;SDS011;73092;49.132;8.920;2024-03-22T03:42:31;24.23;;;11.68;;
83199;SDS011;73092;49.132;8.920;2024-03-22T03:44:57;22.93;;;10.90;;
83199;SDS011;73092;49.132;8.920;2024-03-22T03:47:22;23.53;;;10.27;;
83199;SDS011;73092;49.132;8.920;2024-03-22T03:49:47;29.27;;;10.07;;
83199;SDS011;73092;49.132;8.920;2024-03-22T03:52:13;23.83;;;11.40;;
83199;SDS011;73092;49.132;8.920;2024-03-22T03:54:39;23.45;;;9.52;;
83199;SDS011;73092;49.132;8.920;2024-03-22T03:57:04;26.88;;;11.05;;
83199;SDS011;73092;49.132;8.920;2024-03-22T03:59:30;22.15;;;9.95;;
83199;SDS011;73092;49.132;8.920;2024-03-22T04:01:55;27.95;;;10.68;;
83199;SDS011;73092;49.132;8.920;2024-03-22T04:04:20;23.10;;;8.47;;
83199;SDS011;73092;49.132;8.920;2024-03-22T04:06:46;26.47;;;10.37;;
83199;SDS011;73092;49.132;8.920;2024-03-22T04:09:11;22.27;;;10.45;;
83199;SDS011;73092;49.132;8.920;2024-03-22T04:11:36;19.57;;;9.50;;
83199;SDS011;73092;49.132;8.920;2024-03-22T04:14:02;25.92;;;10.18;;
83199;SDS011;73092;49.132;8.920;2024-03-22T04:16:28;33.42;;;11.60;;
83199;SDS011;73092;49.132;8.920;2024-03-22T04:18:53;25.13;;;11.13;;
83199;SDS011;73092;49.132;8.920;2024-03-22T04:21:19;22.13;;;9.40;;
83199;SDS011;73092;49.132;8.920;2024-03-22T04:23:44;20.83;;;9.97;;
83199;SDS011;73092;49.132;8.920;2024-03-22T04:26:09;20.37;;;10.43;;
83199;SDS011;73092;49.132;8.920;2024-03-22T04:28:35;22.60;;;9.90;;
83199;SDS011;73092;49.132;8.920;2024-03-22T04:33:28;27.33;;;10.25;;
83199;SDS011;73092;49.132;8.920;2024-03-22T04:35:55;20.42;;;9.98;;
83199;SDS011;73092;49.132;8.920;2024-03-22T04:38:21;23.85;;;10.43;;
83199;SDS011;73092;49.132;8.920;2024-03-22T04:40:51;28.15;;;9.05;;
83199;SDS011;73092;49.132;8.920;2024-03-22T04:43:17;32.40;;;10.75;;
83199;SDS011;73092;49.132;8.920;2024-03-22T04:45:43;18.65;;;9.13;;
83199;SDS011;73092;49.132;8.920;2024-03-22T04:48:08;24.80;;;10.40;;
83199;SDS011;73092;49.132;8.920;2024-03-22T04:50:34;29.45;;;10.93;;
83199;SDS011;73092;49.132;8.920;2024-03-22T04:53:00;24.02;;;9.73;;
83199;SDS011;73092;49.132;8.920;2024-03-22T04:55:26;26.98;;;10.77;;
83199;SDS011;73092;49.132;8.920;2024-03-22T04:57:52;24.40;;;10.53;;
83199;SDS011;73092;49.132;8.920;2024-03-22T05:00:17;30.95;;;11.70;;
83199;SDS011;73092;49.132;8.920;2024-03-22T05:02:43;26.20;;;10.50;;
83199;SDS011;73092;49.132;8.920;2024-03-22T05:05:09;25.03;;;11.27;;
83199;SDS011;73092;49.132;8.920;2024-03-22T05:07:34;26.92;;;11.43;;
83199;SDS011;73092;49.132;8.920;2024-03-22T05:10:00;23.42;;;11.70;;
83199;SDS011;73092;49.132;8.920;2024-03-22T05:12:26;23.77;;;11.57;;
83199;SDS011;73092;49.132;8.920;2024-03-22T05:14:51;26.63;;;12.27;;
83199;SDS011;73092;49.132;8.920;2024-03-22T05:17:17;25.30;;;12.30;;
83199;SDS011;73092;49.132;8.920;2024-03-22T05:19:42;32.90;;;11.80;;
83199;SDS011;73092;49.132;8.920;2024-03-22T05:22:08;27.85;;;11.93;;
83199;SDS011;73092;49.132;8.920;2024-03-22T05:24:33;28.13;;;10.70;;
83199;SDS011;73092;49.132;8.920;2024-03-22T05:26:58;30.97;;;12.87;;
83199;SDS011;73092;49.132;8.920;2024-03-22T05:29:24;27.42;;;12.20;;
83199;SDS011;73092;49.132;8.920;2024-03-22T05:31:50;24.40;;;11.18;;
83199;SDS011;73092;49.132;8.920;2024-03-22T05:34:19;23.08;;;11.00;;
83199;SDS011;73092;49.132;8.920;2024-03-22T05:36:45;29.40;;;12.00;;
83199;SDS011;73092;49.132;8.920;2024-03-22T05:39:11;28.65;;;12.20;;
83199;SDS011;73092;49.132;8.920;2024-03-22T05:41:37;25.70;;;11.82;;
83199;SDS011;73092;49.132;8.920;2024-03-22T05:44:03;24.25;;;11.95;;
83199;SDS011;73092;49.132;8.920;2024-03-22T05:46:28;30.73;;;12.20;;
83199;SDS011;73092;49.132;8.920;2024-03-22T05:48:54;28.27;;;13.50;;
83199;SDS011;73092;49.132;8.920;2024-03-22T05:51:20;27.30;;;12.23;;
83199;SDS011;73092;49.132;8.920;2024-03-22T05:53:46;21.57;;;10.77;;
83199;SDS011;73092;49.132;8.920;2024-03-22T05:56:11;23.70;;;12.23;;
83199;SDS011;73092;49.132;8.920;2024-03-22T05:58:37;32.23;;;11.50;;
83199;SDS011;73092;49.132;8.920;2024-03-22T06:01:02;26.40;;;11.77;;
83199;SDS011;73092;49.132;8.920;2024-03-22T06:03:28;27.77;;;13.55;;
83199;SDS011;73092;49.132;8.920;2024-03-22T06:05:54;28.23;;;12.05;;
83199;SDS011;73092;49.132;8.920;2024-03-22T06:08:21;24.88;;;11.65;;
83199;SDS011;73092;49.132;8.920;2024-03-22T06:10:47;32.00;;;12.10;;
83199;SDS011;73092;49.132;8.920;2024-03-22T06:13:13;24.83;;;11.65;;
83199;SDS011;73092;49.132;8.920;2024-03-22T06:15:38;23.55;;;12.02;;
83199;SDS011;73092;49.132;8.920;2024-03-22T06:18:09;24.90;;;10.88;;
83199;SDS011;73092;49.132;8.920;2024-03-22T06:20:35;31.40;;;13.10;;
83199;SDS011;73092;49.132;8.920;2024-03-22T06:23:00;28.70;;;13.27;;
83199;SDS011;73092;49.132;8.920;2024-03-22T06:25:25;27.70;;;12.47;;
83199;SDS011;73092;49.132;8.920;2024-03-22T06:27:52;30.15;;;12.77;;
83199;SDS011;73092;49.132;8.920;2024-03-22T06:30:23;33.08;;;14.55;;
83199;SDS011;73092;49.132;8.920;2024-03-22T06:32:54;30.65;;;12.98;;
83199;SDS011;73092;49.132;8.920;2024-03-22T06:35:25;35.80;;;12.38;;
83199;SDS011;73092;49.132;8.920;2024-03-22T06:37:51;21.42;;;10.73;;
83199;SDS011;73092;49.132;8.920;2024-03-22T06:40:18;32.78;;;13.60;;
83199;SDS011;73092;49.132;8.920;2024-03-22T06:42:43;27.27;;;13.10;;
83199;SDS011;73092;49.132;8.920;2024-03-22T06:45:08;24.53;;;13.17;;
83199;SDS011;73092;49.132;8.920;2024-03-22T06:47:34;28.83;;;13.18;;
83199;SDS011;73092;49.132;8.920;2024-03-22T06:49:59;34.83;;;12.73;;
83199;SDS011;73092;49.132;8.920;2024-03-22T06:52:28;32.78;;;13.90;;
83199;SDS011;73092;49.132;8.920;2024-03-22T06:57:18;23.67;;;11.10;;
83199;SDS011;73092;49.132;8.920;2024-03-22T06:59:44;24.53;;;13.57;;
83199;SDS011;73092;49.132;8.920;2024-03-22T07:02:09;27.27;;;12.30;;
83199;SDS011;73092;49.132;8.920;2024-03-22T07:04:35;31.77;;;13.10;;
83199;SDS011;73092;49.132;8.920;2024-03-22T07:07:00;36.17;;;14.02;;
83199;SDS011;73092;49.132;8.920;2024-03-22T07:09:26;32.17;;;13.73;;
83199;SDS011;73092;49.132;8.920;2024-03-22T07:11:53;33.22;;;12.98;;
83199;SDS011;73092;49.132;8.920;2024-03-22T07:14:19;43.23;;;13.93;;
83199;SDS011;73092;49.132;8.920;2024-03-22T07:16:50;31.10;;;13.98;;
83199;SDS011;73092;49.132;8.920;2024-03-22T07:19:18;40.20;;;14.48;;
83199;SDS011;73092;49.132;8.920;2024-03-22T07:21:44;45.00;;;17.63;;
83199;SDS011;73092;49.132;8.920;2024-03-22T07:24:09;63.35;;;19.55;;
83199;SDS011;73092;49.132;8.920;2024-03-22T07:26:38;59.42;;;19.48;;
83199;SDS011;73092;49.132;8.920;2024-03-22T07:29:03;52.53;;;19.83;;
83199;SDS011;73092;49.132;8.920;2024-03-22T07:31:29;58.00;;;19.67;;
83199;SDS011;73092;49.132;8.920;2024-03-22T07:33:54;44.65;;;16.73;;
83199;SDS011;73092;49.132;8.920;2024-03-22T07:36:20;57.75;;;16.48;;
83199;SDS011;73092;49.132;8.920;2024-03-22T07:38:46;41.10;;;14.40;;
83199;SDS011;73092;49.132;8.920;2024-03-22T07:41:11;49.83;;;16.90;;
83199;SDS011;73092;49.132;8.920;2024-03-22T07:43:37;38.58;;;12.93;;
83199;SDS011;73092;49.132;8.920;2024-03-22T07:46:02;36.07;;;14.43;;
83199;SDS011;73092;49.132;8.920;2024-03-22T07:48:28;45.85;;;16.00;;
83199;SDS011;73092;49.132;8.920;2024-03-22T07:51:11;35.20;;;13.27;;
83199;SDS011;73092;49.132;8.920;2024-03-22T07:53:36;34.65;;;14.77;;
83199;SDS011;73092;49.132;8.920;2024-03-22T07:56:02;40.90;;;17.27;;
83199;SDS011;73092;49.132;8.920;2024-03-22T07:58:27;44.85;;;17.70;;
83199;SDS011;73092;49.132;8.920;2024-03-22T08:00:54;45.55;;;15.20;;
83199;SDS011;73092;49.132;8.920;2024-03-22T08:03:19;38.10;;;14.40;;
83199;SDS011;73092;49.132;8.920;2024-03-22T08:05:44;29.27;;;13.73;;
83199;SDS011;73092;49.132;8.920;2024-03-22T08:08:10;28.67;;;13.43;;
83199;SDS011;73092;49.132;8.920;2024-03-22T08:10:35;36.38;;;15.65;;
83199;SDS011;73092;49.132;8.920;2024-03-22T08:13:00;41.53;;;14.50;;
83199;SDS011;73092;49.132;8.920;2024-03-22T08:15:26;37.72;;;16.27;;
83199;SDS011;73092;49.132;8.920;2024-03-22T08:17:55;32.28;;;15.02;;
83199;SDS011;73092;49.132;8.920;2024-03-22T08:20:22;28.77;;;13.93;;
83199;SDS011;73092;49.132;8.920;2024-03-22T08:22:48;28.13;;;15.07;;
83199;SDS011;73092;49.132;8.920;2024-03-22T08:25:13;38.77;;;14.97;;
83199;SDS011;73092;49.132;8.920;2024-03-22T08:27:45;26.27;;;11.90;;
83199;SDS011;73092;49.132;8.920;2024-03-22T08:30:12;26.85;;;13.32;;
83199;SDS011;73092;49.132;8.920;2024-03-22T08:32:38;29.17;;;13.80;;
83199;SDS011;73092;49.132;8.920;2024-03-22T08:35:03;30.40;;;13.90;;
83199;SDS011;73092;49.132;8.920;2024-03-22T08:37:33;27.02;;;13.23;;
83199;SDS011;73092;49.132;8.920;2024-03-22T08:39:58;27.98;;;13.00;;
83199;SDS011;73092;49.132;8.920;2024-03-22T08:42:24;26.97;;;12.17;;
83199;SDS011;73092;49.132;8.920;2024-03-22T08:44:49;26.63;;;13.13;;
83199;SDS011;73092;49.132;8.920;2024-03-22T08:47:14;19.70;;;12.37;;
83199;SDS011;73092;49.132;8.920;2024-03-22T08:49:40;25.60;;;12.47;;
83199;SDS011;73092;49.132;8.920;2024-03-22T08:52:06;22.63;;;11.82;;
83199;SDS011;73092;49.132;8.920;2024-03-22T08:54:32;25.63;;;12.23;;
83199;SDS011;73092;49.132;8.920;2024-03-22T08:56:57;23.60;;;12.80;;
83199;SDS011;73092;49.132;8.920;2024-03-22T08:59:23;26.37;;;12.83;;
83199;SDS011;73092;49.132;8.920;2024-03-22T09:01:49;31.25;;;13.00;;
83199;SDS011;73092;49.132;8.920;2024-03-22T09:04:15;26.10;;;12.38;;
83199;SDS011;73092;49.132;8.920;2024-03-22T09:06:40;25.23;;;12.82;;
83199;SDS011;73092;49.132;8.920;2024-03-22T09:09:05;24.77;;;13.37;;
83199;SDS011;73092;49.132;8.920;2024-03-22T09:11:31;24.10;;;12.13;;
83199;SDS011;73092;49.132;8.920;2024-03-22T09:13:56;23.70;;;13.23;;
83199;SDS011;73092;49.132;8.920;2024-03-22T09:16:23;28.10;;;12.55;;
83199;SDS011;73092;49.132;8.920;2024-03-22T09:18:48;22.38;;;11.15;;
83199;SDS011;73092;49.132;8.920;2024-03-22T09:21:14;21.83;;;10.85;;
83199;SDS011;73092;49.132;8.920;2024-03-22T09:23:39;22.40;;;11.82;;
83199;SDS011;73092;49.132;8.920;2024-03-22T09:26:05;21.17;;;11.85;;
83199;SDS011;73092;49.132;8.920;2024-03-22T09:28:30;25.88;;;11.40;;
83199;SDS011;73092;49.132;8.920;2024-03-22T09:30:56;24.63;;;12.60;;
83199;SDS011;73092;49.132;8.920;2024-03-22T09:33:22;27.83;;;13.43;;
83199;SDS011;73092;49.132;8.920;2024-03-22T09:35:47;29.07;;;12.20;;
83199;SDS011;73092;49.132;8.920;2024-03-22T09:38:12;32.20;;;12.82;;
83199;SDS011;73092;49.132;8.920;2024-03-22T09:40:38;22.23;;;11.17;;
83199;SDS011;73092;49.132;8.920;2024-03-22T09:43:04;21.23;;;11.30;;
83199;SDS011;73092;49.132;8.920;2024-03-22T09:45:32;28.17;;;12.68;;
83199;SDS011;73092;49.132;8.920;2024-03-22T09:47:58;25.30;;;11.63;;
83199;SDS011;73092;49.132;8.920;2024-03-22T09:50:24;24.10;;;12.90;;
83199;SDS011;73092;49.132;8.920;2024-03-22T09:52:51;23.70;;;11.27;;
83199;SDS011;73092;49.132;8.920;2024-03-22T09:55:19;19.40;;;11.43;;
83199;SDS011;73092;49.132;8.920;2024-03-22T09:57:48;21.27;;;10.32;;
83199;SDS011;73092;49.132;8.920;2024-03-22T10:02:41;31.23;;;12.20;;
83199;SDS011;73092;49.132;8.920;2024-03-22T10:05:07;25.77;;;12.60;;
83199;SDS011;73092;49.132;8.920;2024-03-22T10:07:32;23.02;;;10.57;;
83199;SDS011;73092;49.132;8.920;2024-03-22T10:09:58;27.35;;;11.57;;
83199;SDS011;73092;49.132;8.920;2024-03-22T10:12:24;20.13;;;12.07;;
83199;SDS011;73092;49.132;8.920;2024-03-22T10:14:52;23.50;;;11.02;;
83199;SDS011;73092;49.132;8.920;2024-03-22T10:17:18;23.13;;;11.27;;
83199;SDS011;73092;49.132;8.920;2024-03-22T10:19:44;17.60;;;10.48;;
83199;SDS011;73092;49.132;8.920;2024-03-22T10:22:09;18.07;;;10.77;;
83199;SDS011;73092;49.132;8.920;2024-03-22T10:24:34;16.63;;;9.77;;
83199;SDS011;73092;49.132;8.920;2024-03-22T10:27:00;24.60;;;11.30;;
83199;SDS011;73092;49.132;8.920;2024-03-22T10:29:25;22.35;;;10.98;;
83199;SDS011;73092;49.132;8.920;2024-03-22T10:31:51;21.42;;;10.90;;
83199;SDS011;73092;49.132;8.920;2024-03-22T10:34:18;26.48;;;12.23;;
83199;SDS011;73092;49.132;8.920;2024-03-22T10:36:46;19.65;;;11.57;;
83199;SDS011;73092;49.132;8.920;2024-03-22T10:39:12;22.25;;;11.15;;
83199;SDS011;73092;49.132;8.920;2024-03-22T10:41:40;25.33;;;10.73;;
83199;SDS011;73092;49.132;8.920;2024-03-22T10:44:05;21.23;;;11.77;;
83199;SDS011;73092;49.132;8.920;2024-03-22T10:46:33;27.38;;;12.80;;
83199;SDS011;73092;49.132;8.920;2024-03-22T10:48:59;23.52;;;12.55;;
83199;SDS011;73092;49.132;8.920;2024-03-22T10:51:29;23.40;;;12.50;;
83199;SDS011;73092;49.132;8.920;2024-03-22T10:53:56;24.15;;;13.18;;
83199;SDS011;73092;49.132;8.920;2024-03-22T10:56:22;21.92;;;13.20;;
83199;SDS011;73092;49.132;8.920;2024-03-22T10:58:49;28.27;;;13.48;;
83199;SDS011;73092;49.132;8.920;2024-03-22T11:01:25;21.88;;;11.63;;
83199;SDS011;73092;49.132;8.920;2024-03-22T11:03:51;30.95;;;12.82;;
83199;SDS011;73092;49.132;8.920;2024-03-22T11:06:28;24.25;;;11.38;;
83199;SDS011;73092;49.132;8.920;2024-03-22T11:08:54;21.50;;;11.23;;
83199;SDS011;73092;49.132;8.920;2024-03-22T11:11:19;21.20;;;10.53;;
83199;SDS011;73092;49.132;8.920;2024-03-22T11:13:46;21.53;;;11.97;;
83199;SDS011;73092;49.132;8.920;2024-03-22T11:16:12;20.08;;;10.70;;
83199;SDS011;73092;49.132;8.920;2024-03-22T11:18:39;27.13;;;11.77;;
83199;SDS011;73092;49.132;8.920;2024-03-22T11:21:04;19.47;;;10.30;;
83199;SDS011;73092;49.132;8.920;2024-03-22T11:23:32;22.85;;;10.70;;
83199;SDS011;73092;49.132;8.920;2024-03-22T11:25:58;18.23;;;8.65;;
83199;SDS011;73092;49.132;8.920;2024-03-22T11:28:24;20.75;;;9.10;;
83199;SDS011;73092;49.132;8.920;2024-03-22T11:30:49;19.25;;;9.55;;
83199;SDS011;73092;49.132;8.920;2024-03-22T11:33:15;17.63;;;9.70;;
83199;SDS011;73092;49.132;8.920;2024-03-22T11:35:40;18.88;;;8.25;;
83199;SDS011;73092;49.132;8.920;2024-03-22T11:38:06;20.23;;;9.38;;
83199;SDS011;73092;49.132;8.920;2024-03-22T11:40:31;19.97;;;9.97;;
83199;SDS011;73092;49.132;8.920;2024-03-22T11:42:59;19.05;;;9.32;;
83199;SDS011;73092;49.132;8.920;2024-03-22T11:45:26;19.60;;;11.13;;
83199;SDS011;73092;49.132;8.920;2024-03-22T11:47:52;20.77;;;9.10;;
83199;SDS011;73092;49.132;8.920;2024-03-22T11:50:18;25.70;;;8.93;;
83199;SDS011;73092;49.132;8.920;2024-03-22T11:52:44;20.00;;;8.50;;
83199;SDS011;73092;49.132;8.920;2024-03-22T11:55:13;20.58;;;9.88;;
83199;SDS011;73092;49.132;8.920;2024-03-22T11:57:39;17.45;;;9.10;;
83199;SDS011;73092;49.132;8.920;2024-03-22T12:00:05;20.85;;;10.02;;
83199;SDS011;73092;49.132;8.920;2024-03-22T12:02:35;17.00;;;9.40;;
83199;SDS011;73092;49.132;8.920;2024-03-22T12:05:01;23.67;;;11.00;;
83199;SDS011;73092;49.132;8.920;2024-03-22T12:07:26;18.27;;;8.15;;
83199;SDS011;73092;49.132;8.920;2024-03-22T12:09:52;25.50;;;9.43;;
83199;SDS011;73092;49.132;8.920;2024-03-22T12:12:17;14.80;;;8.53;;
83199;SDS011;73092;49.132;8.920;2024-03-22T12:14:46;20.70;;;8.73;;
83199;SDS011;73092;49.132;8.920;2024-03-22T12:17:11;21.33;;;8.13;;
83199;SDS011;73092;49.132;8.920;2024-03-22T12:19:37;18.25;;;8.77;;
83199;SDS011;73092;49.132;8.920;2024-03-22T12:22:02;14.57;;;8.03;;
83199;SDS011;73092;49.132;8.920;2024-03-22T12:24:27;20.55;;;8.48;;
83199;SDS011;73092;49.132;8.920;2024-03-22T12:26:53;20.57;;;9.67;;
83199;SDS011;73092;49.132;8.920;2024-03-22T12:29:18;21.10;;;8.38;;
83199;SDS011;73092;49.132;8.920;2024-03-22T12:31:44;16.50;;;7.13;;
83199;SDS011;73092;49.132;8.920;2024-03-22T12:34:10;12.02;;;7.55;;
83199;SDS011;73092;49.132;8.920;2024-03-22T12:36:36;19.52;;;8.00;;
83199;SDS011;73092;49.132;8.920;2024-03-22T12:39:01;19.45;;;10.32;;
83199;SDS011;73092;49.132;8.920;2024-03-22T12:41:28;16.23;;;9.02;;
83199;SDS011;73092;49.132;8.920;2024-03-22T12:43:58;14.18;;;7.35;;
83199;SDS011;73092;49.132;8.920;2024-03-22T12:46:24;12.48;;;6.47;;
83199;SDS011;73092;49.132;8.920;2024-03-22T12:48:50;13.30;;;6.68;;
83199;SDS011;73092;49.132;8.920;2024-03-22T12:51:15;16.02;;;6.18;;
83199;SDS011;73092;49.132;8.920;2024-03-22T12:53:41;13.90;;;7.53;;
83199;SDS011;73092;49.132;8.920;2024-03-22T12:56:06;12.50;;;5.78;;
83199;SDS011;73092;49.132;8.920;2024-03-22T12:58:32;14.00;;;5.50;;
83199;SDS011;73092;49.132;8.920;2024-03-22T13:00:57;14.52;;;7.07;;
83199;SDS011;73092;49.132;8.920;2024-03-22T13:03:25;11.05;;;7.10;;
83199;SDS011;73092;49.132;8.920;2024-03-22T13:05:50;13.73;;;6.82;;
83199;SDS011;73092;49.132;8.920;2024-03-22T13:08:15;13.10;;;5.33;;
83199;SDS011;73092;49.132;8.920;2024-03-22T13:10:41;12.77;;;5.95;;
83199;SDS011;73092;49.132;8.920;2024-03-22T13:13:09;10.63;;;5.70;;
83199;SDS011;73092;49.132;8.920;2024-03-22T13:15:35;10.98;;;5.68;;
83199;SDS011;73092;49.132;8.920;2024-03-22T13:18:02;14.35;;;5.85;;
83199;SDS011;73092;49.132;8.920;2024-03-22T13:20:28;13.10;;;5.63;;
83199;SDS011;73092;49.132;8.920;2024-03-22T13:22:54;12.45;;;6.35;;
83199;SDS011;73092;49.132;8.920;2024-03-22T13:25:20;11.88;;;6.25;;
83199;SDS011;73092;49.132;8.920;2024-03-22T13:27:45;10.27;;;5.47;;
83199;SDS011;73092;49.132;8.920;2024-03-22T13:30:10;13.53;;;6.60;;
83199;SDS011;73092;49.132;8.920;2024-03-22T13:32:37;18.17;;;6.32;;
83199;SDS011;73092;49.132;8.920;2024-03-22T13:35:03;10.20;;;5.80;;
83199;SDS011;73092;49.132;8.920;2024-03-22T13:37:30;11.07;;;6.05;;
83199;SDS011;73092;49.132;8.920;2024-03-22T13:39:55;16.88;;;7.22;;
83199;SDS011;73092;49.132;8.920;2024-03-22T13:42:21;13.43;;;6.35;;
83199;SDS011;73092;49.132;8.920;2024-03-22T13:44:46;10.80;;;6.53;;
83199;SDS011;73092;49.132;8.920;2024-03-22T13:47:11;13.48;;;6.88;;
83199;SDS011;73092;49.132;8.920;2024-03-22T13:49:37;19.20;;;8.07;;
83199;SDS011;73092;49.132;8.920;2024-03-22T13:52:06;15.93;;;7.05;;
83199;SDS011;73092;49.132;8.920;2024-03-22T13:54:32;16.83;;;7.13;;
83199;SDS011;73092;49.132;8.920;2024-03-22T13:56:57;14.20;;;6.03;;
83199;SDS011;73092;49.132;8.920;2024-03-22T13:59:22;20.42;;;7.22;;
83199;SDS011;73092;49.132;8.920;2024-03-22T14:01:48;15.90;;;7.05;;
83199;SDS011;73092;49.132;8.920;2024-03-22T14:04:13;15.05;;;7.82;;
83199;SDS011;73092;49.132;8.920;2024-03-22T14:06:40;12.50;;;6.30;;
83199;SDS011;73092;49.132;8.920;2024-03-22T14:09:07;11.93;;;6.72;;
83199;SDS011;73092;49.132;8.920;2024-03-22T14:11:35;13.15;;;6.15;;
83199;SDS011;73092;49.132;8.920;2024-03-22T14:14:01;12.15;;;6.05;;
83199;SDS011;73092;49.132;8.920;2024-03-22T14:16:26;10.77;;;6.37;;
83199;SDS011;73092;49.132;8.920;2024-03-22T14:18:52;15.85;;;6.22;;
83199;SDS011;73092;49.132;8.920;2024-03-22T14:21:17;14.45;;;7.00;;
83199;SDS011;73092;49.132;8.920;2024-03-22T14:23:46;12.95;;;5.88;;
83199;SDS011;73092;49.132;8.920;2024-03-22T14:26:16;15.32;;;6.18;;
83199;SDS011;73092;49.132;8.920;2024-03-22T14:28:42;14.30;;;7.18;;